sensor_id;sensor_type;location;lat;lon;timestamp;pressure;altitude;pressure_sealevel;temperature;humidity
24788;BME280;12883;52.662;5.196;2023-12-22T00:02:04;100122.19;;;7.68;100.00
24788;BME280;12883;52.662;5.196;2023-12-22T00:04:30;100123.41;;;7.72;100.00
24788;BME280;12883;52.662;5.196;2023-12-22T00:06:55;100125.47;;;7.77;100.00
24788;BME280;12883;52.662;5.196;2023-12-22T00:09:20;100120.00;;;7.78;100.00
24788;BME280;12883;52.662;5.196;2023-12-22T00:11:46;100157.41;;;7.88;100.00
24788;BME280;12883;52.662;5.196;2023-12-22T00:14:11;100128.38;;;7.95;100.00
24788;BME280;12883;52.662;5.196;2023-12-22T00:16:37;100050.06;;;7.61;100.00
24788;BME280;12883;52.662;5.196;2023-12-22T00:19:03;100121.28;;;8.02;100.00
24788;BME280;12883;52.662;5.196;2023-12-22T00:21:29;100105.84;;;8.05;100.00
24788;BME280;12883;52.662;5.196;2023-12-22T00:23:54;100105.84;;;8.12;100.00
24788;BME280;12883;52.662;5.196;2023-12-22T00:26:20;100122.94;;;8.16;100.00
24788;BME280;12883;52.662;5.196;2023-12-22T00:28:45;100125.00;;;8.20;100.00
24788;BME280;12883;52.662;5.196;2023-12-22T00:31:10;100101.03;;;8.22;100.00
24788;BME280;12883;52.662;5.196;2023-12-22T00:33:38;100046.91;;;7.98;100.00
24788;BME280;12883;52.662;5.196;2023-12-22T00:36:03;100104.91;;;8.32;100.00
24788;BME280;12883;52.662;5.196;2023-12-22T00:38:29;100095.34;;;8.31;100.00
24788;BME280;12883;52.662;5.196;2023-12-22T00:40:55;100037.97;;;7.99;100.00
24788;BME280;12883;52.662;5.196;2023-12-22T00:43:20;100078.25;;;8.27;100.00
24788;BME280;12883;52.662;5.196;2023-12-22T00:45:45;100093.50;;;8.25;100.00
24788;BME280;12883;52.662;5.196;2023-12-22T00:48:11;100080.69;;;8.22;100.00
24788;BME280;12883;52.662;5.196;2023-12-22T00:50:36;100083.56;;;8.21;100.00
24788;BME280;12883;52.662;5.196;2023-12-22T00:53:02;100087.22;;;8.20;100.00
24788;BME280;12883;52.662;5.196;2023-12-22T00:55:27;100102.03;;;8.21;100.00
24788;BME280;12883;52.662;5.196;2023-12-22T00:57:52;100107.91;;;8.16;100.00
24788;BME280;12883;52.662;5.196;2023-12-22T01:00:18;100075.72;;;7.87;100.00
24788;BME280;12883;52.662;5.196;2023-12-22T01:02:43;100122.09;;;8.09;100.00
24788;BME280;12883;52.662;5.196;2023-12-22T01:05:09;100098.53;;;8.07;100.00
24788;BME280;12883;52.662;5.196;2023-12-22T01:07:35;100107.47;;;8.06;100.00
24788;BME280;12883;52.662;5.196;2023-12-22T01:10:00;100110.91;;;8.00;100.00
24788;BME280;12883;52.662;5.196;2023-12-22T01:12:28;100104.41;;;7.96;100.00
24788;BME280;12883;52.662;5.196;2023-12-22T01:14:55;100110.84;;;7.74;100.00
24788;BME280;12883;52.662;5.196;2023-12-22T01:17:21;100112.91;;;7.85;100.00
24788;BME280;12883;52.662;5.196;2023-12-22T01:19:46;100164.38;;;8.02;100.00
24788;BME280;12883;52.662;5.196;2023-12-22T01:22:11;100131.00;;;7.88;100.00
24788;BME280;12883;52.662;5.196;2023-12-22T01:24:37;100186.88;;;7.92;100.00
24788;BME280;12883;52.662;5.196;2023-12-22T01:27:06;100167.94;;;7.41;100.00
24788;BME280;12883;52.662;5.196;2023-12-22T01:29:31;100164.63;;;7.26;100.00
24788;BME280;12883;52.662;5.196;2023-12-22T01:31:57;100140.78;;;7.13;100.00
24788;BME280;12883;52.662;5.196;2023-12-22T01:34:22;100117.41;;;7.04;100.00
24788;BME280;12883;52.662;5.196;2023-12-22T01:36:47;100130.31;;;6.92;100.00
24788;BME280;12883;52.662;5.196;2023-12-22T01:39:12;100115.50;;;6.91;100.00
24788;BME280;12883;52.662;5.196;2023-12-22T01:41:38;100102.66;;;6.82;100.00
24788;BME280;12883;52.662;5.196;2023-12-22T01:44:03;100105.84;;;6.77;100.00
24788;BME280;12883;52.662;5.196;2023-12-22T01:46:28;100114.38;;;6.79;100.00
24788;BME280;12883;52.662;5.196;2023-12-22T01:48:54;100122.47;;;6.78;100.00
24788;BME280;12883;52.662;5.196;2023-12-22T01:51:19;100121.03;;;6.75;100.00
24788;BME280;12883;52.662;5.196;2023-12-22T01:53:46;100122.09;;;6.81;100.00
24788;BME280;12883;52.662;5.196;2023-12-22T01:56:11;100110.34;;;6.83;100.00
24788;BME280;12883;52.662;5.196;2023-12-22T01:58:37;100145.13;;;6.93;100.00
24788;BME280;12883;52.662;5.196;2023-12-22T02:01:03;100113.06;;;6.96;100.00
24788;BME280;12883;52.662;5.196;2023-12-22T02:03:29;100102.50;;;6.90;100.00
24788;BME280;12883;52.662;5.196;2023-12-22T02:05:55;100100.00;;;6.82;100.00
24788;BME280;12883;52.662;5.196;2023-12-22T02:08:20;100013.69;;;6.35;100.00
24788;BME280;12883;52.662;5.196;2023-12-22T02:10:48;100049.91;;;6.54;100.00
24788;BME280;12883;52.662;5.196;2023-12-22T02:13:13;100096.78;;;6.86;100.00
24788;BME280;12883;52.662;5.196;2023-12-22T02:15:39;100089.91;;;6.85;100.00
24788;BME280;12883;52.662;5.196;2023-12-22T02:18:09;100091.28;;;6.81;100.00
24788;BME280;12883;52.662;5.196;2023-12-22T02:20:36;100034.78;;;6.35;100.00
24788;BME280;12883;52.662;5.196;2023-12-22T02:23:02;100091.28;;;6.81;100.00
24788;BME280;12883;52.662;5.196;2023-12-22T02:25:27;100074.88;;;6.86;100.00
24788;BME280;12883;52.662;5.196;2023-12-22T02:28:03;100083.22;;;6.89;100.00
24788;BME280;12883;52.662;5.196;2023-12-22T02:30:42;100083.84;;;6.91;100.00
24788;BME280;12883;52.662;5.196;2023-12-22T02:33:15;100081.81;;;6.93;100.00
24788;BME280;12883;52.662;5.196;2023-12-22T02:35:41;100099.88;;;6.96;100.00
24788;BME280;12883;52.662;5.196;2023-12-22T02:38:08;100095.88;;;7.00;100.00
24788;BME280;12883;52.662;5.196;2023-12-22T02:40:34;100103.38;;;7.03;100.00
24788;BME280;12883;52.662;5.196;2023-12-22T02:43:01;100105.84;;;7.11;100.00
24788;BME280;12883;52.662;5.196;2023-12-22T02:45:26;100118.63;;;7.08;100.00
24788;BME280;12883;52.662;5.196;2023-12-22T02:47:52;100100.56;;;7.05;100.00
24788;BME280;12883;52.662;5.196;2023-12-22T02:50:17;100103.78;;;7.00;100.00
24788;BME280;12883;52.662;5.196;2023-12-22T02:52:43;100115.53;;;6.98;100.00
24788;BME280;12883;52.662;5.196;2023-12-22T02:55:08;100129.31;;;7.00;100.00
24788;BME280;12883;52.662;5.196;2023-12-22T02:57:34;100117.97;;;6.99;100.00
24788;BME280;12883;52.662;5.196;2023-12-22T02:59:59;100121.63;;;6.98;100.00
24788;BME280;12883;52.662;5.196;2023-12-22T03:02:25;100119.19;;;6.97;100.00
24788;BME280;12883;52.662;5.196;2023-12-22T03:04:50;100055.28;;;6.67;100.00
24788;BME280;12883;52.662;5.196;2023-12-22T03:07:16;100058.31;;;6.64;100.00
24788;BME280;12883;52.662;5.196;2023-12-22T03:09:42;100092.56;;;6.92;100.00
24788;BME280;12883;52.662;5.196;2023-12-22T03:12:08;100103.06;;;6.85;100.00
24788;BME280;12883;52.662;5.196;2023-12-22T03:14:34;100098.59;;;6.86;100.00
24788;BME280;12883;52.662;5.196;2023-12-22T03:17:00;100121.72;;;6.84;100.00
24788;BME280;12883;52.662;5.196;2023-12-22T03:19:25;100104.47;;;6.81;100.00
24788;BME280;12883;52.662;5.196;2023-12-22T03:21:51;100092.47;;;6.79;100.00
24788;BME280;12883;52.662;5.196;2023-12-22T03:24:17;100095.28;;;6.77;100.00
24788;BME280;12883;52.662;5.196;2023-12-22T03:26:44;100117.03;;;6.79;100.00
24788;BME280;12883;52.662;5.196;2023-12-22T03:29:10;100118.66;;;6.80;100.00
24788;BME280;12883;52.662;5.196;2023-12-22T03:31:35;100116.03;;;6.87;100.00
24788;BME280;12883;52.662;5.196;2023-12-22T03:34:00;100129.03;;;6.88;100.00
24788;BME280;12883;52.662;5.196;2023-12-22T03:36:26;100149.56;;;6.93;100.00
24788;BME280;12883;52.662;5.196;2023-12-22T03:38:51;100148.97;;;6.97;100.00
24788;BME280;12883;52.662;5.196;2023-12-22T03:41:16;100144.97;;;7.01;100.00
24788;BME280;12883;52.662;5.196;2023-12-22T03:43:42;100140.94;;;7.05;100.00
24788;BME280;12883;52.662;5.196;2023-12-22T03:46:07;100119.97;;;6.97;100.00
24788;BME280;12883;52.662;5.196;2023-12-22T03:48:32;100134.31;;;7.16;100.00
24788;BME280;12883;52.662;5.196;2023-12-22T03:50:58;100129.06;;;7.22;100.00
24788;BME280;12883;52.662;5.196;2023-12-22T03:53:23;100134.38;;;7.29;100.00
24788;BME280;12883;52.662;5.196;2023-12-22T03:55:48;100127.88;;;7.31;100.00
24788;BME280;12883;52.662;5.196;2023-12-22T03:58:14;100128.91;;;7.30;100.00
24788;BME280;12883;52.662;5.196;2023-12-22T04:00:39;100141.66;;;7.27;100.00
24788;BME280;12883;52.662;5.196;2023-12-22T04:03:04;100147.34;;;7.24;100.00
24788;BME280;12883;52.662;5.196;2023-12-22T04:05:30;100152.63;;;7.24;100.00
24788;BME280;12883;52.662;5.196;2023-12-22T04:07:55;100171.28;;;7.22;100.00
24788;BME280;12883;52.662;5.196;2023-12-22T04:10:20;100181.25;;;7.27;100.00
24788;BME280;12883;52.662;5.196;2023-12-22T04:12:46;100170.50;;;7.28;100.00
24788;BME280;12883;52.662;5.196;2023-12-22T04:15:11;100184.94;;;7.32;100.00
24788;BME280;12883;52.662;5.196;2023-12-22T04:17:36;100180.91;;;7.36;100.00
24788;BME280;12883;52.662;5.196;2023-12-22T04:20:02;100175.22;;;7.39;100.00
24788;BME280;12883;52.662;5.196;2023-12-22T04:22:27;100163.69;;;7.40;100.00
24788;BME280;12883;52.662;5.196;2023-12-22T04:24:53;100166.53;;;7.45;100.00
24788;BME280;12883;52.662;5.196;2023-12-22T04:27:18;100161.91;;;7.47;100.00
24788;BME280;12883;52.662;5.196;2023-12-22T04:29:43;100155.56;;;7.42;100.00
24788;BME280;12883;52.662;5.196;2023-12-22T04:32:09;100152.75;;;7.50;100.00
24788;BME280;12883;52.662;5.196;2023-12-22T04:34:34;100159.09;;;7.55;100.00
24788;BME280;12883;52.662;5.196;2023-12-22T04:36:59;100151.19;;;7.55;100.00
24788;BME280;12883;52.662;5.196;2023-12-22T04:39:25;100150.16;;;7.56;100.00
24788;BME280;12883;52.662;5.196;2023-12-22T04:41:50;100152.19;;;7.54;100.00
24788;BME280;12883;52.662;5.196;2023-12-22T04:44:15;100146.50;;;7.57;100.00
24788;BME280;12883;52.662;5.196;2023-12-22T04:46:40;100142.84;;;7.58;100.00
24788;BME280;12883;52.662;5.196;2023-12-22T04:49:06;100158.50;;;7.60;100.00
24788;BME280;12883;52.662;5.196;2023-12-22T04:51:31;100153.03;;;7.61;100.00
24788;BME280;12883;52.662;5.196;2023-12-22T04:53:56;100141.06;;;7.65;100.00
24788;BME280;12883;52.662;5.196;2023-12-22T04:56:22;100135.41;;;7.68;100.00
24788;BME280;12883;52.662;5.196;2023-12-22T04:58:47;100135.19;;;7.70;100.00
24788;BME280;12883;52.662;5.196;2023-12-22T05:01:12;100149.22;;;7.77;100.00
24788;BME280;12883;52.662;5.196;2023-12-22T05:03:38;100146.19;;;7.80;100.00
24788;BME280;12883;52.662;5.196;2023-12-22T05:06:03;100139.72;;;7.82;100.00
24788;BME280;12883;52.662;5.196;2023-12-22T05:08:29;100126.84;;;7.66;100.00
24788;BME280;12883;52.662;5.196;2023-12-22T05:10:54;100146.84;;;7.88;100.00
24788;BME280;12883;52.662;5.196;2023-12-22T05:13:19;100133.22;;;7.85;100.00
24788;BME280;12883;52.662;5.196;2023-12-22T05:15:45;100148.91;;;7.99;100.00
24788;BME280;12883;52.662;5.196;2023-12-22T05:18:10;100144.44;;;8.06;100.00
24788;BME280;12883;52.662;5.196;2023-12-22T05:20:36;100136.53;;;8.06;100.00
24788;BME280;12883;52.662;5.196;2023-12-22T05:23:01;100133.50;;;8.09;100.00
24788;BME280;12883;52.662;5.196;2023-12-22T05:25:26;100127.38;;;8.15;100.00
24788;BME280;12883;52.662;5.196;2023-12-22T05:27:52;100117.84;;;8.14;100.00
24788;BME280;12883;52.662;5.196;2023-12-22T05:30:17;100134.34;;;8.16;100.00
24788;BME280;12883;52.662;5.196;2023-12-22T05:32:43;100149.81;;;8.19;100.00
24788;BME280;12883;52.662;5.196;2023-12-22T05:35:09;100137.59;;;8.25;100.00
24788;BME280;12883;52.662;5.196;2023-12-22T05:37:35;100130.88;;;8.22;100.00
24788;BME280;12883;52.662;5.196;2023-12-22T05:40:00;100137.63;;;8.31;100.00
24788;BME280;12883;52.662;5.196;2023-12-22T05:42:26;100150.44;;;8.34;100.00
24788;BME280;12883;52.662;5.196;2023-12-22T05:44:51;100160.41;;;8.32;100.00
24788;BME280;12883;52.662;5.196;2023-12-22T05:47:17;100151.88;;;8.30;100.00
24788;BME280;12883;52.662;5.196;2023-12-22T05:49:43;100159.78;;;8.24;100.00
24788;BME280;12883;52.662;5.196;2023-12-22T05:52:08;100156.88;;;8.19;100.00
24788;BME280;12883;52.662;5.196;2023-12-22T05:54:35;100153.63;;;8.17;100.00
24788;BME280;12883;52.662;5.196;2023-12-22T05:57:01;100147.28;;;8.05;100.00
24788;BME280;12883;52.662;5.196;2023-12-22T05:59:26;100146.06;;;8.01;100.00
24788;BME280;12883;52.662;5.196;2023-12-22T06:01:53;100144.41;;;7.93;100.00
24788;BME280;12883;52.662;5.196;2023-12-22T06:04:19;100129.56;;;7.86;100.00
24788;BME280;12883;52.662;5.196;2023-12-22T06:06:44;100104.56;;;7.75;100.00
24788;BME280;12883;52.662;5.196;2023-12-22T06:09:10;100099.88;;;7.77;100.00
24788;BME280;12883;52.662;5.196;2023-12-22T06:11:37;100091.34;;;7.75;100.00
24788;BME280;12883;52.662;5.196;2023-12-22T06:14:02;100073.06;;;7.74;100.00
24788;BME280;12883;52.662;5.196;2023-12-22T06:16:28;100073.66;;;7.76;100.00
24788;BME280;12883;52.662;5.196;2023-12-22T06:18:53;100078.34;;;7.74;100.00
24788;BME280;12883;52.662;5.196;2023-12-22T06:21:19;100073.88;;;7.74;100.00
24788;BME280;12883;52.662;5.196;2023-12-22T06:23:44;100072.63;;;7.70;100.00
24788;BME280;12883;52.662;5.196;2023-12-22T06:26:13;100068.38;;;7.69;100.00
24788;BME280;12883;52.662;5.196;2023-12-22T06:28:38;100057.22;;;7.67;100.00
24788;BME280;12883;52.662;5.196;2023-12-22T06:31:05;100048.41;;;7.60;100.00
24788;BME280;12883;52.662;5.196;2023-12-22T06:33:31;100039.53;;;7.61;100.00
24788;BME280;12883;52.662;5.196;2023-12-22T06:35:56;100028.50;;;7.51;100.00
24788;BME280;12883;52.662;5.196;2023-12-22T06:38:21;100029.16;;;7.60;100.00
24788;BME280;12883;52.662;5.196;2023-12-22T06:40:47;100028.53;;;7.64;100.00
24788;BME280;12883;52.662;5.196;2023-12-22T06:43:13;99991.19;;;7.61;100.00
24788;BME280;12883;52.662;5.196;2023-12-22T06:45:39;100033.06;;;7.83;100.00
24788;BME280;12883;52.662;5.196;2023-12-22T06:48:06;100025.78;;;7.92;100.00
24788;BME280;12883;52.662;5.196;2023-12-22T06:50:31;100034.53;;;7.99;100.00
24788;BME280;12883;52.662;5.196;2023-12-22T06:52:56;100035.53;;;8.04;100.00
24788;BME280;12883;52.662;5.196;2023-12-22T06:55:22;100046.31;;;8.09;100.00
24788;BME280;12883;52.662;5.196;2023-12-22T06:57:48;100038.19;;;8.17;100.00
24788;BME280;12883;52.662;5.196;2023-12-22T07:00:14;100031.06;;;8.11;100.00
24788;BME280;12883;52.662;5.196;2023-12-22T07:02:39;100046.16;;;8.30;100.00
24788;BME280;12883;52.662;5.196;2023-12-22T07:07:50;100071.34;;;8.39;100.00
24788;BME280;12883;52.662;5.196;2023-12-22T07:10:16;100074.41;;;8.43;100.00
24788;BME280;12883;52.662;5.196;2023-12-22T07:12:41;100077.66;;;8.45;100.00
24788;BME280;12883;52.662;5.196;2023-12-22T07:15:07;100075.41;;;8.48;100.00
24788;BME280;12883;52.662;5.196;2023-12-22T07:17:33;100078.66;;;8.50;100.00
24788;BME280;12883;52.662;5.196;2023-12-22T07:19:58;100079.09;;;8.54;100.00
24788;BME280;12883;52.662;5.196;2023-12-22T07:22:24;100039.22;;;8.29;100.00
24788;BME280;12883;52.662;5.196;2023-12-22T07:24:49;100098.81;;;8.58;100.00
24788;BME280;12883;52.662;5.196;2023-12-22T07:27:18;100091.88;;;8.63;100.00
24788;BME280;12883;52.662;5.196;2023-12-22T07:29:44;100093.31;;;8.66;100.00
24788;BME280;12883;52.662;5.196;2023-12-22T07:32:09;100094.94;;;8.67;100.00
24788;BME280;12883;52.662;5.196;2023-12-22T07:34:34;100081.31;;;8.70;100.00
24788;BME280;12883;52.662;5.196;2023-12-22T07:37:00;100083.94;;;8.76;100.00
24788;BME280;12883;52.662;5.196;2023-12-22T07:39:26;100093.69;;;8.82;100.00
24788;BME280;12883;52.662;5.196;2023-12-22T07:41:51;99913.00;;;7.73;100.00
24788;BME280;12883;52.662;5.196;2023-12-22T07:44:16;100099.81;;;8.89;100.00
24788;BME280;12883;52.662;5.196;2023-12-22T07:46:42;100103.84;;;8.98;100.00
24788;BME280;12883;52.662;5.196;2023-12-22T07:49:07;100107.13;;;9.00;100.00
24788;BME280;12883;52.662;5.196;2023-12-22T07:51:32;100099.78;;;9.02;100.00
24788;BME280;12883;52.662;5.196;2023-12-22T07:53:58;100079.44;;;9.03;100.00
24788;BME280;12883;52.662;5.196;2023-12-22T07:56:23;100076.97;;;9.08;100.00
24788;BME280;12883;52.662;5.196;2023-12-22T07:58:49;100058.03;;;9.04;100.00
24788;BME280;12883;52.662;5.196;2023-12-22T08:01:14;100027.13;;;9.05;100.00
24788;BME280;12883;52.662;5.196;2023-12-22T08:03:40;100018.16;;;9.06;100.00
24788;BME280;12883;52.662;5.196;2023-12-22T08:06:06;100018.34;;;9.04;100.00
24788;BME280;12883;52.662;5.196;2023-12-22T08:08:31;100006.94;;;9.10;100.00
24788;BME280;12883;52.662;5.196;2023-12-22T08:10:58;99965.47;;;8.91;100.00
24788;BME280;12883;52.662;5.196;2023-12-22T08:13:24;99933.78;;;8.85;100.00
24788;BME280;12883;52.662;5.196;2023-12-22T08:15:50;99971.34;;;9.06;100.00
24788;BME280;12883;52.662;5.196;2023-12-22T08:18:15;99969.50;;;9.07;100.00
24788;BME280;12883;52.662;5.196;2023-12-22T08:20:41;99964.63;;;9.04;100.00
24788;BME280;12883;52.662;5.196;2023-12-22T08:23:06;99946.31;;;9.02;100.00
24788;BME280;12883;52.662;5.196;2023-12-22T08:25:31;99926.56;;;8.98;100.00
24788;BME280;12883;52.662;5.196;2023-12-22T08:27:57;99915.00;;;8.99;100.00
24788;BME280;12883;52.662;5.196;2023-12-22T08:30:22;99900.50;;;9.02;100.00
24788;BME280;12883;52.662;5.196;2023-12-22T08:32:49;99894.22;;;9.03;100.00
24788;BME280;12883;52.662;5.196;2023-12-22T08:35:15;99903.53;;;9.05;100.00
24788;BME280;12883;52.662;5.196;2023-12-22T08:37:41;99877.91;;;9.06;100.00
24788;BME280;12883;52.662;5.196;2023-12-22T08:40:07;99885.56;;;9.20;100.00
24788;BME280;12883;52.662;5.196;2023-12-22T08:42:33;99838.41;;;9.11;100.00
24788;BME280;12883;52.662;5.196;2023-12-22T08:44:58;99839.31;;;9.23;100.00
24788;BME280;12883;52.662;5.196;2023-12-22T08:47:24;99849.28;;;9.27;100.00
24788;BME280;12883;52.662;5.196;2023-12-22T08:49:50;99856.19;;;9.28;100.00
24788;BME280;12883;52.662;5.196;2023-12-22T08:52:15;99875.31;;;9.30;100.00
24788;BME280;12883;52.662;5.196;2023-12-22T08:54:40;99854.53;;;9.34;100.00
24788;BME280;12883;52.662;5.196;2023-12-22T08:57:06;99855.72;;;9.38;100.00
24788;BME280;12883;52.662;5.196;2023-12-22T08:59:31;99853.06;;;9.38;100.00
24788;BME280;12883;52.662;5.196;2023-12-22T09:01:56;99838.63;;;9.34;100.00
24788;BME280;12883;52.662;5.196;2023-12-22T09:04:22;99838.97;;;9.44;100.00
24788;BME280;12883;52.662;5.196;2023-12-22T09:06:49;99811.41;;;9.27;100.00
24788;BME280;12883;52.662;5.196;2023-12-22T09:09:14;99847.06;;;9.48;100.00
24788;BME280;12883;52.662;5.196;2023-12-22T09:11:39;99857.47;;;9.50;100.00
24788;BME280;12883;52.662;5.196;2023-12-22T09:14:08;99857.00;;;9.53;100.00
24788;BME280;12883;52.662;5.196;2023-12-22T09:16:35;99860.88;;;9.57;100.00
24788;BME280;12883;52.662;5.196;2023-12-22T09:19:01;99876.75;;;9.57;100.00
24788;BME280;12883;52.662;5.196;2023-12-22T09:21:26;99874.47;;;9.60;100.00
24788;BME280;12883;52.662;5.196;2023-12-22T09:23:51;99882.03;;;9.57;100.00
24788;BME280;12883;52.662;5.196;2023-12-22T09:26:17;99882.88;;;9.57;100.00
24788;BME280;12883;52.662;5.196;2023-12-22T09:28:43;99891.19;;;9.61;100.00
24788;BME280;12883;52.662;5.196;2023-12-22T09:31:08;99868.50;;;9.47;100.00
24788;BME280;12883;52.662;5.196;2023-12-22T09:33:34;99863.19;;;9.47;100.00
24788;BME280;12883;52.662;5.196;2023-12-22T09:35:59;99895.84;;;9.65;100.00
24788;BME280;12883;52.662;5.196;2023-12-22T09:38:25;99884.59;;;9.70;100.00
24788;BME280;12883;52.662;5.196;2023-12-22T09:40:50;99886.41;;;9.69;100.00
24788;BME280;12883;52.662;5.196;2023-12-22T09:43:16;99895.78;;;9.72;100.00
24788;BME280;12883;52.662;5.196;2023-12-22T09:45:45;99900.22;;;9.78;100.00
24788;BME280;12883;52.662;5.196;2023-12-22T09:48:12;99875.81;;;9.69;100.00
24788;BME280;12883;52.662;5.196;2023-12-22T09:50:42;99853.50;;;9.59;100.00
24788;BME280;12883;52.662;5.196;2023-12-22T09:53:09;99901.72;;;9.92;100.00
24788;BME280;12883;52.662;5.196;2023-12-22T09:55:36;99898.63;;;9.95;100.00
24788;BME280;12883;52.662;5.196;2023-12-22T09:58:02;99885.91;;;9.85;100.00
24788;BME280;12883;52.662;5.196;2023-12-22T10:00:31;99907.78;;;9.99;100.00
24788;BME280;12883;52.662;5.196;2023-12-22T10:02:57;99902.84;;;10.02;100.00
24788;BME280;12883;52.662;5.196;2023-12-22T10:05:22;99909.38;;;10.06;100.00
24788;BME280;12883;52.662;5.196;2023-12-22T10:07:48;99908.94;;;10.09;100.00
24788;BME280;12883;52.662;5.196;2023-12-22T10:10:15;99921.97;;;10.11;100.00
24788;BME280;12883;52.662;5.196;2023-12-22T10:12:44;99902.84;;;10.02;100.00
24788;BME280;12883;52.662;5.196;2023-12-22T10:15:12;99937.03;;;10.17;100.00
24788;BME280;12883;52.662;5.196;2023-12-22T10:17:38;99933.72;;;10.21;100.00
24788;BME280;12883;52.662;5.196;2023-12-22T10:20:04;99932.69;;;10.22;100.00
24788;BME280;12883;52.662;5.196;2023-12-22T10:22:29;99927.00;;;10.19;100.00
24788;BME280;12883;52.662;5.196;2023-12-22T10:24:55;99933.34;;;10.18;100.00
24788;BME280;12883;52.662;5.196;2023-12-22T10:27:20;99929.94;;;10.11;100.00
24788;BME280;12883;52.662;5.196;2023-12-22T10:29:56;99938.25;;;10.14;100.00
24788;BME280;12883;52.662;5.196;2023-12-22T10:32:22;99946.59;;;10.18;100.00
24788;BME280;12883;52.662;5.196;2023-12-22T10:34:48;99950.66;;;10.20;100.00
24788;BME280;12883;52.662;5.196;2023-12-22T10:37:16;99956.34;;;10.24;100.00
24788;BME280;12883;52.662;5.196;2023-12-22T10:39:41;99958.75;;;10.25;100.00
24788;BME280;12883;52.662;5.196;2023-12-22T10:42:07;99975.28;;;10.27;100.00
24788;BME280;12883;52.662;5.196;2023-12-22T10:44:33;99975.41;;;10.32;100.00
24788;BME280;12883;52.662;5.196;2023-12-22T10:47:00;99971.75;;;10.33;100.00
24788;BME280;12883;52.662;5.196;2023-12-22T10:49:25;99972.16;;;10.30;100.00
24788;BME280;12883;52.662;5.196;2023-12-22T10:51:51;99968.66;;;10.36;100.00
24788;BME280;12883;52.662;5.196;2023-12-22T10:54:17;99961.91;;;10.40;100.00
24788;BME280;12883;52.662;5.196;2023-12-22T10:56:43;99945.38;;;10.38;100.00
24788;BME280;12883;52.662;5.196;2023-12-22T10:59:08;99956.59;;;10.40;100.00
24788;BME280;12883;52.662;5.196;2023-12-22T11:01:38;99953.13;;;10.40;100.00
24788;BME280;12883;52.662;5.196;2023-12-22T11:04:07;99952.28;;;10.39;100.00
24788;BME280;12883;52.662;5.196;2023-12-22T11:06:36;99970.63;;;10.41;100.00
24788;BME280;12883;52.662;5.196;2023-12-22T11:09:07;99963.88;;;10.45;100.00
24788;BME280;12883;52.662;5.196;2023-12-22T11:11:37;99962.84;;;10.46;100.00
24788;BME280;12883;52.662;5.196;2023-12-22T11:14:04;99948.72;;;10.52;100.00
24788;BME280;12883;52.662;5.196;2023-12-22T11:16:31;99948.91;;;10.50;100.00
24788;BME280;12883;52.662;5.196;2023-12-22T11:18:59;99949.75;;;10.51;100.00
24788;BME280;12883;52.662;5.196;2023-12-22T11:21:25;99957.84;;;10.56;100.00
24788;BME280;12883;52.662;5.196;2023-12-22T11:23:52;99957.84;;;10.56;100.00
24788;BME280;12883;52.662;5.196;2023-12-22T11:26:18;99966.41;;;10.58;100.00
24788;BME280;12883;52.662;5.196;2023-12-22T11:28:48;99947.16;;;10.44;100.00
24788;BME280;12883;52.662;5.196;2023-12-22T11:31:14;99960.19;;;10.64;100.00
24788;BME280;12883;52.662;5.196;2023-12-22T11:33:45;99942.59;;;10.69;100.00
24788;BME280;12883;52.662;5.196;2023-12-22T11:36:11;99979.50;;;10.71;100.00
24788;BME280;12883;52.662;5.196;2023-12-22T11:38:37;99961.31;;;10.74;100.00
24788;BME280;12883;52.662;5.196;2023-12-22T11:41:04;99953.97;;;10.76;100.00
24788;BME280;12883;52.662;5.196;2023-12-22T11:43:31;99954.31;;;10.80;100.00
24788;BME280;12883;52.662;5.196;2023-12-22T11:46:02;99967.34;;;10.81;100.00
24788;BME280;12883;52.662;5.196;2023-12-22T11:48:29;99955.94;;;10.81;100.00
24788;BME280;12883;52.662;5.196;2023-12-22T11:50:54;99955.50;;;10.84;100.00
24788;BME280;12883;52.662;5.196;2023-12-22T11:53:23;99946.50;;;10.85;100.00
24788;BME280;12883;52.662;5.196;2023-12-22T11:56:05;99948.34;;;10.84;100.00
24788;BME280;12883;52.662;5.196;2023-12-22T11:58:34;99946.50;;;10.85;100.00
24788;BME280;12883;52.662;5.196;2023-12-22T12:01:13;99947.09;;;10.87;100.00
24788;BME280;12883;52.662;5.196;2023-12-22T12:06:13;99915.97;;;10.76;100.00
24788;BME280;12883;52.662;5.196;2023-12-22T12:08:39;99944.13;;;10.95;100.00
24788;BME280;12883;52.662;5.196;2023-12-22T12:11:05;99946.78;;;10.95;100.00
24788;BME280;12883;52.662;5.196;2023-12-22T12:13:32;99949.44;;;10.95;100.00
24788;BME280;12883;52.662;5.196;2023-12-22T12:15:59;99949.00;;;10.98;100.00
24788;BME280;12883;52.662;5.196;2023-12-22T12:18:32;99944.66;;;11.03;100.00
24788;BME280;12883;52.662;5.196;2023-12-22T12:20:59;99963.81;;;11.05;100.00
24788;BME280;12883;52.662;5.196;2023-12-22T12:23:25;99922.03;;;10.83;100.00
24788;BME280;12883;52.662;5.196;2023-12-22T12:25:52;99957.03;;;11.09;100.00
24788;BME280;12883;52.662;5.196;2023-12-22T12:28:25;99948.47;;;11.07;100.00
24788;BME280;12883;52.662;5.196;2023-12-22T12:30:57;99947.44;;;11.08;100.00
24788;BME280;12883;52.662;5.196;2023-12-22T12:33:25;99947.22;;;11.10;100.00
24788;BME280;12883;52.662;5.196;2023-12-22T12:35:52;99918.31;;;11.02;100.00
24788;BME280;12883;52.662;5.196;2023-12-22T12:38:21;99923.47;;;10.97;100.00
24788;BME280;12883;52.662;5.196;2023-12-22T12:40:50;99917.81;;;10.93;100.00
24788;BME280;12883;52.662;5.196;2023-12-22T12:43:17;99906.47;;;10.86;100.00
24788;BME280;12883;52.662;5.196;2023-12-22T12:45:42;99911.03;;;10.97;100.00
24788;BME280;12883;52.662;5.196;2023-12-22T12:48:08;99924.31;;;10.97;100.00
24788;BME280;12883;52.662;5.196;2023-12-22T12:50:33;99884.88;;;10.83;100.00
24788;BME280;12883;52.662;5.196;2023-12-22T12:52:59;99925.25;;;11.03;100.00